createdAt,value
2023-04-02T00:01:47.114Z,72.21
2023-04-02T00:04:21.938Z,72.75
2023-04-02T00:06:54.169Z,72.03
2023-04-02T00:09:25.652Z,72.90
2023-04-02T00:11:55.692Z,72.55
2023-04-02T00:14:22.061Z,72.61
2023-04-02T00:16:49.076Z,72.47
2023-04-02T00:19:25.730Z,72.97
2023-04-02T00:21:53.873Z,71.88
2023-04-02T00:24:21.712Z,72.48
2023-04-02T00:26:51.326Z,71.91
2023-04-02T00:29:18.880Z,72.24
2023-04-02T00:31:49.021Z,72.75
2023-04-02T00:34:23.861Z,71.27
2023-04-02T00:36:51.054Z,72.58
2023-04-02T00:39:41.442Z,72.29
2023-04-02T00:42:12.514Z,72.55
2023-04-02T00:44:44.883Z,72.30
2023-04-02T00:47:20.937Z,72.10
2023-04-02T00:49:51.830Z,71.33
2023-04-02T00:52:23.348Z,72.51
2023-04-02T00:54:56.750Z,72.67
2023-04-02T00:57:26.360Z,72.14
2023-04-02T01:00:21.402Z,71.76
2023-04-02T01:03:19.288Z,72.27
2023-04-02T01:05:55.928Z,72.05
2023-04-02T01:08:37.591Z,72.91
2023-04-02T01:11:03.872Z,72.95
2023-04-02T01:13:38.223Z,72.44
2023-04-02T01:16:13.825Z,73.05
2023-04-02T01:18:52.009Z,73.27
2023-04-02T01:21:54.200Z,72.92
2023-04-02T01:24:24.465Z,71.95
2023-04-02T01:27:16.400Z,72.30
2023-04-02T01:29:57.519Z,72.81
2023-04-02T01:32:28.055Z,72.09
2023-04-02T01:34:57.032Z,71.87
2023-04-02T01:37:49.817Z,71.53
2023-04-02T01:40:39.845Z,72.19
2023-04-02T01:43:12.308Z,72.46
2023-04-02T01:45:39.063Z,71.95
2023-04-02T01:48:17.774Z,71.77
2023-04-02T01:50:46.563Z,71.42
2023-04-02T01:53:16.592Z,71.49
2023-04-02T01:55:56.702Z,71.78
2023-04-02T01:58:27.107Z,72.00
2023-04-02T02:01:09.335Z,71.29
2023-04-02T02:03:37.677Z,72.02
2023-04-02T02:06:06.002Z,71.83
2023-04-02T02:08:44.882Z,70.76
2023-04-02T02:11:15.571Z,71.57
2023-04-02T02:13:55.489Z,71.21
2023-04-02T02:16:23.142Z,71.43
2023-04-02T02:18:56.488Z,72.14
2023-04-02T02:21:40.092Z,71.44
2023-04-02T02:24:17.043Z,71.18
2023-04-02T02:26:46.575Z,70.28
2023-04-02T02:29:18.518Z,71.00
2023-04-02T02:31:48.336Z,70.03
2023-04-02T02:34:28.179Z,70.77
2023-04-02T02:37:14.690Z,70.23
2023-04-02T02:39:44.860Z,70.68
2023-04-02T02:42:22.678Z,70.47
2023-04-02T02:44:51.361Z,71.11
2023-04-02T02:47:30.809Z,72.27
2023-04-02T02:50:22.354Z,71.99
2023-04-02T02:52:57.613Z,71.42
2023-04-02T02:55:32.070Z,71.29
2023-04-02T02:58:04.492Z,71.14
2023-04-02T03:00:31.931Z,71.84
2023-04-02T03:02:58.549Z,71.27
2023-04-02T03:05:27.991Z,71.96
2023-04-02T03:07:57.130Z,71.50
2023-04-02T03:10:34.997Z,71.75
2023-04-02T03:13:36.897Z,71.85
2023-04-02T03:16:20.878Z,71.50
2023-04-02T03:18:53.287Z,73.01
2023-04-02T03:21:48.661Z,72.72
2023-04-02T03:24:39.651Z,72.59
2023-04-02T03:27:11.237Z,71.48
2023-04-02T03:29:41.446Z,71.85
2023-04-02T03:32:17.101Z,71.22
2023-04-02T03:34:50.452Z,71.85
2023-04-02T03:37:28.485Z,71.94
2023-04-02T03:40:19.203Z,72.82
2023-04-02T03:43:02.778Z,72.38
2023-04-02T03:45:39.012Z,72.34
2023-04-02T03:48:15.841Z,72.42
2023-04-02T03:50:58.373Z,72.81
2023-04-02T03:53:26.906Z,73.16
2023-04-02T03:55:55.742Z,72.86
2023-04-02T03:58:32.104Z,72.65
2023-04-02T04:01:26.191Z,72.08
2023-04-02T04:04:02.981Z,72.03
2023-04-02T04:06:33.034Z,72.41
2023-04-02T04:09:07.339Z,72.60
2023-04-02T04:11:37.615Z,72.56
2023-04-02T04:14:14.171Z,71.87
2023-04-02T04:17:15.420Z,72.23
2023-04-02T04:19:54.920Z,71.79
2023-04-02T04:22:33.628Z,72.25
2023-04-02T04:25:17.913Z,71.74
2023-04-02T04:28:07.644Z,71.36
2023-04-02T04:30:50.773Z,71.93
2023-04-02T04:33:34.552Z,71.86
2023-04-02T04:36:03.163Z,71.69
2023-04-02T04:38:39.103Z,71.87
2023-04-02T04:41:13.264Z,72.36
2023-04-02T04:43:52.149Z,73.12
2023-04-02T04:46:25.669Z,72.81
2023-04-02T04:49:08.316Z,73.17
2023-04-02T04:51:45.773Z,73.11
2023-04-02T04:54:14.172Z,73.61
2023-04-02T04:56:44.644Z,72.75
2023-04-02T04:59:42.705Z,71.87
2023-04-02T05:02:30.222Z,72.09
2023-04-02T05:04:56.894Z,71.43
2023-04-02T05:07:30.089Z,71.52
2023-04-02T05:10:03.755Z,72.17
2023-04-02T05:12:41.960Z,72.20
2023-04-02T05:15:28.124Z,71.47
2023-04-02T05:18:32.626Z,71.22
2023-04-02T05:20:59.012Z,71.31
2023-04-02T05:23:28.677Z,70.54
2023-04-02T05:26:19.259Z,70.89
2023-04-02T05:28:59.638Z,70.39
2023-04-02T05:31:38.586Z,70.63
2023-04-02T05:34:05.668Z,71.30
2023-04-02T05:36:33.002Z,70.61
2023-04-02T05:39:00.588Z,71.67
2023-04-02T05:41:30.404Z,70.80
2023-04-02T05:44:06.732Z,71.60
2023-04-02T05:46:43.531Z,71.14
2023-04-02T05:49:18.562Z,70.35
2023-04-02T05:51:50.323Z,70.49
2023-04-02T05:54:27.158Z,70.79
2023-04-02T05:57:03.685Z,69.33
2023-04-02T05:59:37.379Z,69.85
2023-04-02T06:02:21.839Z,69.88
2023-04-02T06:04:59.772Z,70.08
2023-04-02T06:07:32.503Z,70.48
2023-04-02T06:10:10.829Z,69.85
2023-04-02T06:13:03.088Z,70.40
2023-04-02T06:15:31.441Z,69.17
2023-04-02T06:18:16.834Z,69.97
2023-04-02T06:20:43.398Z,69.61
2023-04-02T06:23:19.732Z,68.87
2023-04-02T06:25:49.173Z,69.47
2023-04-02T06:28:20.206Z,69.54
2023-04-02T06:30:48.150Z,69.00
2023-04-02T06:33:15.895Z,69.87
2023-04-02T06:35:43.173Z,69.36
2023-04-02T06:38:20.214Z,70.46
2023-04-02T06:40:52.243Z,70.67
2023-04-02T06:43:36.101Z,70.94
2023-04-02T06:46:09.443Z,69.46
2023-04-02T06:48:37.836Z,70.32
2023-04-02T06:51:08.996Z,69.50
2023-04-02T06:53:38.985Z,68.88
2023-04-02T06:56:14.480Z,68.79
2023-04-02T06:58:41.108Z,68.33
2023-04-02T07:01:12.734Z,69.61
2023-04-02T07:03:40.043Z,69.26
2023-04-02T07:06:07.454Z,68.38
2023-04-02T07:08:33.844Z,68.24
2023-04-02T07:11:00.660Z,67.75
2023-04-02T07:13:27.171Z,67.76
2023-04-02T07:15:55.160Z,68.69
2023-04-02T07:18:29.250Z,68.42
2023-04-02T07:20:56.568Z,68.42
2023-04-02T07:23:23.482Z,66.77
2023-04-02T07:25:51.387Z,66.99
2023-04-02T07:28:18.006Z,65.72
2023-04-02T07:30:45.396Z,65.57
2023-04-02T07:33:18.248Z,65.66
2023-04-02T07:35:45.455Z,65.35
2023-04-02T07:38:12.324Z,66.15
2023-04-02T07:40:39.319Z,67.30
2023-04-02T07:43:06.440Z,66.20
2023-04-02T07:45:33.077Z,65.68
2023-04-02T07:48:11.360Z,65.23
2023-04-02T07:50:38.002Z,65.76
2023-04-02T07:53:04.992Z,65.42
2023-04-02T07:55:31.993Z,65.57
2023-04-02T07:57:59.799Z,64.98
2023-04-02T08:00:28.281Z,66.34
2023-04-02T08:02:54.820Z,64.71
2023-04-02T08:05:22.316Z,64.30
2023-04-02T08:07:57.184Z,64.37
2023-04-02T08:10:24.380Z,64.52
2023-04-02T08:12:51.459Z,64.25
2023-04-02T08:15:18.450Z,65.06
2023-04-02T08:17:46.390Z,64.58
2023-04-02T08:20:21.225Z,65.04
2023-04-02T08:22:49.055Z,64.79
2023-04-02T08:25:16.675Z,63.87
2023-04-02T08:27:43.346Z,63.78
2023-04-02T08:30:12.547Z,63.61
2023-04-02T08:32:41.035Z,64.26
2023-04-02T08:35:12.305Z,63.82
2023-04-02T08:37:38.853Z,62.95
2023-04-02T08:40:09.977Z,63.29
2023-04-02T08:42:46.405Z,62.15
2023-04-02T08:45:54.217Z,61.79
2023-04-02T08:48:20.994Z,61.21
2023-04-02T08:50:47.472Z,61.19
2023-04-02T08:53:19.278Z,62.38
2023-04-02T08:56:05.629Z,61.50
2023-04-02T08:58:43.654Z,62.23
2023-04-02T09:01:19.247Z,61.30
2023-04-02T09:03:49.804Z,61.36
2023-04-02T09:06:19.253Z,61.57
2023-04-02T09:08:48.881Z,62.64
2023-04-02T09:11:21.462Z,61.95
2023-04-02T09:13:54.403Z,62.33
2023-04-02T09:16:34.048Z,62.05
2023-04-02T09:19:01.509Z,61.88
2023-04-02T09:21:36.372Z,61.57
2023-04-02T09:24:05.307Z,61.56
2023-04-02T09:26:33.527Z,61.20
2023-04-02T09:29:08.389Z,61.46
2023-04-02T09:31:39.864Z,60.69
2023-04-02T09:34:29.939Z,61.37
2023-04-02T09:36:57.646Z,60.45
2023-04-02T09:39:26.286Z,60.32
2023-04-02T09:42:05.124Z,59.59
2023-04-02T09:44:33.128Z,60.18
2023-04-02T09:47:05.978Z,59.25
2023-04-02T09:49:36.159Z,58.31
2023-04-02T09:52:27.069Z,57.67
2023-04-02T09:55:18.269Z,59.38
2023-04-02T09:57:46.955Z,58.85
2023-04-02T10:00:31.347Z,59.44
2023-04-02T10:03:24.026Z,59.71
2023-04-02T10:06:11.321Z,57.37
2023-04-02T10:08:39.992Z,59.24
2023-04-02T10:11:14.256Z,58.92
2023-04-02T10:13:55.887Z,60.26
2023-04-02T10:16:32.796Z,60.53
2023-04-02T10:19:07.198Z,60.31
2023-04-02T10:21:37.382Z,60.56
2023-04-02T10:24:12.616Z,60.52
2023-04-02T10:26:53.692Z,59.38
2023-04-02T10:29:35.993Z,60.51
2023-04-02T10:32:14.596Z,59.56
2023-04-02T10:34:42.911Z,58.96
2023-04-02T10:37:33.717Z,58.58
2023-04-02T10:40:09.988Z,59.02
2023-04-02T10:42:55.117Z,59.78
2023-04-02T10:45:46.725Z,57.76
2023-04-02T10:48:18.937Z,58.01
2023-04-02T10:50:52.852Z,58.86
2023-04-02T10:53:23.244Z,58.20
2023-04-02T10:55:58.027Z,57.22
2023-04-02T10:58:31.694Z,57.13
2023-04-02T11:01:21.508Z,57.82
2023-04-02T11:03:57.837Z,57.73
2023-04-02T11:06:30.202Z,57.31
2023-04-02T11:09:07.316Z,57.61
2023-04-02T11:11:42.074Z,58.52
2023-04-02T11:14:20.932Z,57.60
2023-04-02T11:16:51.954Z,57.37
2023-04-02T11:19:18.423Z,56.90
2023-04-02T11:22:13.875Z,56.70
2023-04-02T11:24:48.386Z,57.53
2023-04-02T11:27:29.231Z,55.81
2023-04-02T11:30:08.037Z,55.49
2023-04-02T11:32:40.477Z,56.20
2023-04-02T11:35:31.998Z,57.09
2023-04-02T11:38:23.362Z,56.78
2023-04-02T11:41:00.282Z,56.53
2023-04-02T11:43:32.579Z,56.62
2023-04-02T11:46:29.899Z,55.76
2023-04-02T11:49:35.824Z,55.02
2023-04-02T11:52:12.062Z,56.64
2023-04-02T11:54:39.488Z,56.88
2023-04-02T11:57:28.305Z,57.12
2023-04-02T12:00:19.518Z,58.26
2023-04-02T12:03:14.431Z,57.61
2023-04-02T12:05:54.880Z,57.50
2023-04-02T12:08:28.954Z,57.51
2023-04-02T12:10:59.452Z,56.04
2023-04-02T12:13:41.214Z,54.94
2023-04-02T12:16:09.363Z,55.77
2023-04-02T12:18:41.636Z,55.51
2023-04-02T12:21:08.152Z,56.47
2023-04-02T12:23:37.194Z,55.10
2023-04-02T12:26:09.043Z,56.58
2023-04-02T12:28:38.033Z,57.76
2023-04-02T12:31:13.262Z,57.09
2023-04-02T12:33:40.887Z,57.49
2023-04-02T12:36:18.136Z,58.63
2023-04-02T12:38:51.916Z,57.06
2023-04-02T12:41:27.185Z,56.34
2023-04-02T12:44:02.769Z,55.43
2023-04-02T12:46:32.130Z,55.70
2023-04-02T12:49:06.779Z,55.25
2023-04-02T12:51:35.842Z,55.85
2023-04-02T12:54:02.836Z,55.10
2023-04-02T12:56:29.317Z,56.37
2023-04-02T12:58:59.826Z,56.80
2023-04-02T13:01:29.844Z,56.98
2023-04-02T13:03:59.988Z,56.50
2023-04-02T13:06:27.054Z,56.01
2023-04-02T13:08:54.983Z,56.22
2023-04-02T13:11:22.683Z,56.23
2023-04-02T13:13:50.299Z,55.69
2023-04-02T13:16:19.678Z,55.78
2023-04-02T13:18:48.367Z,56.15
2023-04-02T13:21:14.741Z,56.56
2023-04-02T13:23:41.224Z,57.48
2023-04-02T13:26:19.874Z,57.16
2023-04-02T13:29:16.911Z,57.90
2023-04-02T13:31:43.899Z,59.65
2023-04-02T13:34:10.670Z,59.28
2023-04-02T13:36:37.417Z,58.88
2023-04-02T13:39:04.847Z,58.34
2023-04-02T13:41:36.481Z,59.06
2023-04-02T13:44:03.378Z,59.31
2023-04-02T13:46:32.551Z,59.50
2023-04-02T13:48:59.520Z,59.53
2023-04-02T13:51:47.131Z,59.72
2023-04-02T13:54:23.314Z,59.57
2023-04-02T13:56:50.040Z,59.47
2023-04-02T13:59:16.744Z,60.44
2023-04-02T14:01:46.161Z,61.12
2023-04-02T14:04:18.643Z,60.66
2023-04-02T14:07:07.187Z,60.69
2023-04-02T14:09:51.266Z,59.74
2023-04-02T14:12:23.517Z,58.89
2023-04-02T14:14:50.544Z,59.76
2023-04-02T14:17:37.887Z,59.31
2023-04-02T14:20:39.782Z,59.10
2023-04-02T14:23:24.435Z,58.19
2023-04-02T14:26:15.262Z,58.28
2023-04-02T14:28:57.547Z,57.46
2023-04-02T14:31:38.700Z,57.40
2023-04-02T14:34:21.569Z,57.70
2023-04-02T14:37:06.403Z,59.38
2023-04-02T14:39:55.018Z,58.54
2023-04-02T14:42:46.141Z,57.85
2023-04-02T14:45:26.236Z,58.72
2023-04-02T14:48:02.875Z,59.19
2023-04-02T14:50:41.801Z,59.00
2023-04-02T14:53:22.951Z,59.69
2023-04-02T14:55:52.739Z,60.13
2023-04-02T14:58:27.823Z,59.84
2023-04-02T15:01:00.502Z,59.30
2023-04-02T15:03:36.437Z,58.56
2023-04-02T15:06:11.137Z,58.56
2023-04-02T15:09:09.687Z,58.68
2023-04-02T15:11:41.138Z,59.46
2023-04-02T15:14:36.832Z,59.36
2023-04-02T15:17:03.796Z,59.09
2023-04-02T15:19:30.724Z,59.45
2023-04-02T15:22:03.868Z,59.92
2023-04-02T15:24:40.200Z,60.69
2023-04-02T15:27:34.567Z,60.00
2023-04-02T15:30:23.776Z,59.82
2023-04-02T15:32:51.140Z,58.58
2023-04-02T15:35:17.642Z,58.73
2023-04-02T15:37:51.166Z,57.85
2023-04-02T15:40:26.505Z,58.45
2023-04-02T15:43:07.124Z,59.72
2023-04-02T15:45:50.592Z,59.19
2023-04-02T15:48:33.332Z,60.56
2023-04-02T15:51:14.464Z,59.88
2023-04-02T15:53:44.712Z,59.13
2023-04-02T15:56:37.993Z,59.36
2023-04-02T15:59:30.641Z,59.02
2023-04-02T16:02:30.954Z,58.89
2023-04-02T16:05:09.116Z,58.97
2023-04-02T16:07:47.987Z,57.98
2023-04-02T16:10:41.126Z,59.42
2023-04-02T16:13:34.866Z,58.96
2023-04-02T16:16:09.619Z,59.27
2023-04-02T16:18:49.833Z,58.17
2023-04-02T16:21:21.848Z,57.50
2023-04-02T16:23:49.005Z,57.78
2023-04-02T16:26:39.116Z,57.74
2023-04-02T16:29:51.174Z,56.97
2023-04-02T16:32:32.774Z,57.58
2023-04-02T16:37:56.929Z,56.84
2023-04-02T16:41:08.348Z,58.64
2023-04-02T16:43:57.566Z,58.63
2023-04-02T16:46:40.544Z,58.40
2023-04-02T16:49:27.108Z,58.69
2023-04-02T16:51:56.862Z,60.02
2023-04-02T16:55:02.156Z,59.83
2023-04-02T16:57:47.692Z,59.82
2023-04-02T17:00:33.274Z,59.53
2023-04-02T17:03:09.243Z,59.51
2023-04-02T17:06:23.511Z,59.75
2023-04-02T17:08:58.662Z,59.67
2023-04-02T17:11:36.624Z,60.08
2023-04-02T17:14:12.145Z,60.81
2023-04-02T17:16:45.743Z,59.75
2023-04-02T17:19:17.980Z,60.25
2023-04-02T17:21:48.487Z,61.37
2023-04-02T17:24:26.274Z,60.91
2023-04-02T17:27:20.739Z,61.21
2023-04-02T17:29:52.739Z,62.00
2023-04-02T17:32:32.474Z,62.09
2023-04-02T17:35:36.014Z,60.87
2023-04-02T17:38:31.757Z,61.48
2023-04-02T17:41:17.486Z,61.70
2023-04-02T17:43:52.561Z,61.95
2023-04-02T17:46:34.611Z,63.20
2023-04-02T17:49:42.420Z,62.50
2023-04-02T17:52:33.616Z,63.32
2023-04-02T17:55:06.342Z,63.10
2023-04-02T17:58:05.087Z,62.93
2023-04-02T18:00:53.908Z,63.04
2023-04-02T18:03:35.661Z,63.34
2023-04-02T18:06:24.887Z,63.21
2023-04-02T18:09:29.506Z,64.49
2023-04-02T18:12:14.030Z,64.82
2023-04-02T18:15:06.660Z,64.92
2023-04-02T18:17:39.321Z,64.10
2023-04-02T18:20:20.831Z,64.18
2023-04-02T18:23:32.206Z,65.08
2023-04-02T18:26:32.678Z,65.91
2023-04-02T18:29:17.454Z,64.66
2023-04-02T18:32:09.545Z,65.42
2023-04-02T18:34:52.738Z,65.07
2023-04-02T18:37:28.493Z,65.79
2023-04-02T18:40:09.930Z,65.81
2023-04-02T18:43:03.916Z,65.33
2023-04-02T18:45:54.668Z,66.18
2023-04-02T18:48:36.840Z,66.58
2023-04-02T18:51:05.880Z,66.73
2023-04-02T18:53:33.606Z,66.97
2023-04-02T18:56:07.370Z,66.71
2023-04-02T18:58:53.111Z,67.15
2023-04-02T19:01:30.688Z,67.29
2023-04-02T19:04:11.096Z,66.81
2023-04-02T19:06:42.058Z,66.55
2023-04-02T19:09:23.341Z,66.83
2023-04-02T19:11:53.031Z,66.89
2023-04-02T19:14:21.254Z,67.72
2023-04-02T19:17:09.747Z,68.18
2023-04-02T19:20:11.370Z,69.19
2023-04-02T19:22:57.105Z,69.29
2023-04-02T19:25:45.393Z,68.92
2023-04-02T19:28:14.796Z,69.17
2023-04-02T19:30:50.774Z,69.13
2023-04-02T19:33:23.412Z,69.27
2023-04-02T19:36:14.056Z,69.85
2023-04-02T19:39:06.041Z,69.76
2023-04-02T19:41:51.429Z,70.38
2023-04-02T19:44:18.871Z,69.96
2023-04-02T19:46:46.403Z,69.47
2023-04-02T19:49:22.751Z,69.91
2023-04-02T19:51:50.107Z,69.76
2023-04-02T19:54:16.616Z,70.38
2023-04-02T19:56:43.460Z,70.31
2023-04-02T20:01:43.528Z,70.73
2023-04-02T20:04:10.043Z,70.59
2023-04-02T20:06:37.536Z,70.72
2023-04-02T20:09:04.024Z,70.07
2023-04-02T20:11:31.043Z,70.19
2023-04-02T20:13:57.484Z,69.94
2023-04-02T20:16:24.025Z,70.30
2023-04-02T20:18:51.271Z,70.31
2023-04-02T20:21:18.005Z,69.82
2023-04-02T20:23:44.834Z,69.82
2023-04-02T20:26:12.608Z,70.03
2023-04-02T20:28:39.325Z,70.65
2023-04-02T20:31:11.689Z,71.00
2023-04-02T20:33:38.850Z,71.45
2023-04-02T20:36:14.378Z,71.88
2023-04-02T20:38:41.572Z,72.32
2023-04-02T20:41:08.863Z,72.09
2023-04-02T20:43:36.545Z,72.13
2023-04-02T20:46:05.759Z,72.84
2023-04-02T20:48:34.131Z,71.88
2023-04-02T20:51:02.971Z,71.86
2023-04-02T20:53:30.993Z,71.98
2023-04-02T20:56:08.970Z,72.34
2023-04-02T20:58:37.620Z,72.55
2023-04-02T21:01:24.699Z,72.33
2023-04-02T21:03:56.655Z,71.94
2023-04-02T21:06:25.509Z,72.45
2023-04-02T21:08:52.932Z,72.48
2023-04-02T21:11:21.751Z,72.73
2023-04-02T21:13:49.145Z,72.43
2023-04-02T21:16:19.368Z,72.22
2023-04-02T21:18:47.999Z,72.82
2023-04-02T21:21:15.592Z,72.43
2023-04-02T21:23:44.977Z,72.62
2023-04-02T21:26:17.481Z,72.70
2023-04-02T21:28:44.860Z,72.13
2023-04-02T21:31:20.481Z,72.30
2023-04-02T21:33:49.837Z,72.81
2023-04-02T21:36:19.166Z,73.01
2023-04-02T21:38:48.302Z,72.80
2023-04-02T21:41:23.363Z,73.23
2023-04-02T21:43:50.303Z,73.13
2023-04-02T21:46:19.286Z,72.96
2023-04-02T21:48:46.603Z,73.25
2023-04-02T21:51:17.550Z,73.75
2023-04-02T21:53:44.673Z,73.99
2023-04-02T21:56:13.907Z,73.54
2023-04-02T21:58:40.891Z,73.23
2023-04-02T22:01:11.326Z,73.71
2023-04-02T22:03:44.321Z,73.28
2023-04-02T22:06:15.909Z,73.64
2023-04-02T22:08:43.498Z,73.23
2023-04-02T22:11:18.939Z,73.48
2023-04-02T22:13:46.816Z,73.58
2023-04-02T22:16:15.963Z,73.76
2023-04-02T22:18:43.579Z,73.54
2023-04-02T22:21:11.262Z,73.64
2023-04-02T22:23:37.878Z,73.57
2023-04-02T22:26:06.311Z,73.99
2023-04-02T22:28:33.100Z,73.50
2023-04-02T22:31:17.973Z,73.46
2023-04-02T22:33:45.572Z,73.06
2023-04-02T22:36:13.041Z,73.13
2023-04-02T22:38:39.603Z,73.43
2023-04-02T22:41:08.122Z,73.03
2023-04-02T22:43:35.623Z,72.81
2023-04-02T22:46:02.833Z,72.97
2023-04-02T22:48:29.383Z,72.74
2023-04-02T22:50:55.827Z,73.13
2023-04-02T22:53:22.687Z,73.40
2023-04-02T22:55:49.303Z,73.31
2023-04-02T22:58:15.865Z,73.81
2023-04-02T23:00:42.469Z,73.57
2023-04-02T23:03:08.916Z,73.16
2023-04-02T23:05:35.454Z,73.08
2023-04-02T23:08:01.901Z,73.42
2023-04-02T23:10:28.998Z,73.28
2023-04-02T23:12:57.402Z,72.94
2023-04-02T23:15:23.941Z,73.38
2023-04-02T23:17:50.433Z,73.20
2023-04-02T23:20:16.909Z,72.88
2023-04-02T23:22:43.395Z,72.23
2023-04-02T23:25:09.873Z,72.30
2023-04-02T23:27:36.535Z,72.26
2023-04-02T23:30:03.412Z,72.66
2023-04-02T23:32:29.907Z,72.30
2023-04-02T23:34:56.332Z,72.13
2023-04-02T23:37:22.825Z,72.75
2023-04-02T23:39:49.246Z,72.86
2023-04-02T23:42:15.901Z,73.54
2023-04-02T23:44:42.324Z,73.36
2023-04-02T23:47:09.394Z,73.17
2023-04-02T23:49:35.838Z,73.21
2023-04-02T23:52:02.245Z,73.45
2023-04-02T23:54:28.656Z,73.42
2023-04-02T23:56:55.125Z,73.62
2023-04-02T23:59:21.560Z,73.68
